Accueil
METAR-TAF:

METAR-TAF

Aéroports :

Roberval, Québec, Canada

Aéroport de Roberval

latitude: 48-31N, longitude: 072-16W, altitude: 179 m

Observation

Le bulletin a été fait il y a 21 minutes, à 04:00 UTC
Vent 11 kt de sud-ouest
Température -3°C
Humidité 80%
Pression 1007 hPa
Visibilité: 32.2 km
Quelques nuages à une hauteur de 1500 ft
Ciel couvert à une hauteur de 5800 ft

METAR: CYRJ 240400Z 23011KT 20SM FEW015 OVC058 M03/M06 A2975 RMK SF2SC6 SLP090

Heure: 23:21 (04:21 UTC)

Prévision

Le bulletin a été fait il y a 3 heures et 17 minutes, à 01:04 UTC
Prévision valable du 24 à 01 UTC au 24 à 03 UTC
Vent 3 kt de direction variable
Visibilité: 9.7 km
Ciel couvert à une hauteur de 3000 ft
neige faible
Temporairement
du 24 à 01 UTC au 24 à 03 UTC
Visibilité: 3.2 km
Ciel couvert à une hauteur de 1500 ft
neige faible

TAF: CYRJ 240104Z 2401/2403 VRB03KT 6SM -SN OVC030 TEMPO 2401/2403 2SM -SN OVC015 RMK NXT FCST WILL BE ISSUED AT 241245Z

Observations et prévisions météorologiques de plus de 4000 aéroports (messages METAR et TAF).

Les stations disponibles sont représentées par des disques jaunes et rouges sur la carte.

Passer la souris dessus pour voir le nom de la station.

Cliquer dessus pour voir les observations et prévisions météorologiques.

Pour changer de carte: cliquez sur les boutons verts avec une croix noire pour zoomer, sur le bouton vert avec un tiret pour effectuer un zoom arrière, ou sur les flèches vertes pour les cartes adjacentes.


METAR-TAF: